sensor_id;sensor_type;location;lat;lon;timestamp;pressure;altitude;pressure_sealevel;temperature;humidity
21109;BME280;10712;52.944;9.098;2023-03-04T00:02:01;102163.41;;;13.32;48.83
21109;BME280;10712;52.944;9.098;2023-03-04T00:04:27;102158.13;;;13.30;49.03
21109;BME280;10712;52.944;9.098;2023-03-04T00:06:53;102150.09;;;13.30;49.03
21109;BME280;10712;52.944;9.098;2023-03-04T00:09:20;102149.03;;;13.34;49.09
21109;BME280;10712;52.944;9.098;2023-03-04T00:11:47;102149.09;;;13.33;48.96
21109;BME280;10712;52.944;9.098;2023-03-04T00:14:13;102151.78;;;13.33;49.07
21109;BME280;10712;52.944;9.098;2023-03-04T00:16:38;102144.53;;;13.35;49.05
21109;BME280;10712;52.944;9.098;2023-03-04T00:19:04;102149.03;;;13.34;49.14
21109;BME280;10712;52.944;9.098;2023-03-04T00:21:30;102150.91;;;13.32;49.35
21109;BME280;10712;52.944;9.098;2023-03-04T00:23:56;102145.25;;;13.38;49.37
21109;BME280;10712;52.944;9.098;2023-03-04T00:26:22;102148.06;;;13.35;49.32
21109;BME280;10712;52.944;9.098;2023-03-04T00:28:48;102149.75;;;13.38;49.25
21109;BME280;10712;52.944;9.098;2023-03-04T00:31:14;102147.06;;;13.38;49.46
21109;BME280;10712;52.944;9.098;2023-03-04T00:33:40;102138.31;;;13.34;49.29
21109;BME280;10712;52.944;9.098;2023-03-04T00:36:09;102141.94;;;13.33;49.58
21109;BME280;10712;52.944;9.098;2023-03-04T00:38:34;102135.47;;;13.37;49.39
21109;BME280;10712;52.944;9.098;2023-03-04T00:41:01;102143.50;;;13.37;49.71
21109;BME280;10712;52.944;9.098;2023-03-04T00:43:27;102134.38;;;13.41;49.54
21109;BME280;10712;52.944;9.098;2023-03-04T00:45:53;102132.88;;;13.36;49.78
21109;BME280;10712;52.944;9.098;2023-03-04T00:48:19;102132.00;;;13.35;49.71
21109;BME280;10712;52.944;9.098;2023-03-04T00:50:45;102128.09;;;13.43;49.88
21109;BME280;10712;52.944;9.098;2023-03-04T00:53:10;102119.94;;;13.46;49.56
21109;BME280;10712;52.944;9.098;2023-03-04T00:55:37;102126.16;;;13.46;49.41
21109;BME280;10712;52.944;9.098;2023-03-04T00:58:02;102136.00;;;13.46;49.52
21109;BME280;10712;52.944;9.098;2023-03-04T01:00:29;102138.66;;;13.46;49.43
21109;BME280;10712;52.944;9.098;2023-03-04T01:02:56;102126.84;;;13.50;49.37
21109;BME280;10712;52.944;9.098;2023-03-04T01:05:21;102121.50;;;13.50;49.39
21109;BME280;10712;52.944;9.098;2023-03-04T01:07:47;102117.88;;;13.51;49.44
21109;BME280;10712;52.944;9.098;2023-03-04T01:10:14;102123.41;;;13.48;49.58
21109;BME280;10712;52.944;9.098;2023-03-04T01:12:42;102120.81;;;13.46;49.65
21109;BME280;10712;52.944;9.098;2023-03-04T01:15:11;102127.72;;;13.50;49.64
21109;BME280;10712;52.944;9.098;2023-03-04T01:17:38;102121.66;;;13.47;49.75
21109;BME280;10712;52.944;9.098;2023-03-04T01:20:07;102113.47;;;13.50;49.53
21109;BME280;10712;52.944;9.098;2023-03-04T01:22:34;102109.22;;;13.46;49.84
21109;BME280;10712;52.944;9.098;2023-03-04T01:25:00;102110.97;;;13.47;49.85
21109;BME280;10712;52.944;9.098;2023-03-04T01:27:26;102107.03;;;13.54;49.66
21109;BME280;10712;52.944;9.098;2023-03-04T01:29:52;102112.31;;;13.55;49.37
21109;BME280;10712;52.944;9.098;2023-03-04T01:32:18;102108.91;;;13.52;49.46
21109;BME280;10712;52.944;9.098;2023-03-04T01:34:44;102100.94;;;13.50;49.53
21109;BME280;10712;52.944;9.098;2023-03-04T01:37:10;102091.28;;;13.48;49.70
21109;BME280;10712;52.944;9.098;2023-03-04T01:39:38;102093.00;;;13.49;49.50
21109;BME280;10712;52.944;9.098;2023-03-04T01:42:04;102093.22;;;13.44;49.91
21109;BME280;10712;52.944;9.098;2023-03-04T01:44:31;102091.28;;;13.48;49.94
21109;BME280;10712;52.944;9.098;2023-03-04T01:46:58;102090.66;;;13.60;49.30
21109;BME280;10712;52.944;9.098;2023-03-04T01:49:24;102085.94;;;13.48;49.80
21109;BME280;10712;52.944;9.098;2023-03-04T01:51:53;102087.81;;;13.46;50.20
21109;BME280;10712;52.944;9.098;2023-03-04T01:54:21;102077.22;;;13.43;49.90
21109;BME280;10712;52.944;9.098;2023-03-04T01:56:49;102076.22;;;13.45;50.08
21109;BME280;10712;52.944;9.098;2023-03-04T01:59:25;102078.97;;;13.44;50.20
21109;BME280;10712;52.944;9.098;2023-03-04T02:01:58;102074.34;;;13.47;50.01
21109;BME280;10712;52.944;9.098;2023-03-04T02:04:30;102070.00;;;13.45;50.15
21109;BME280;10712;52.944;9.098;2023-03-04T02:06:58;102060.59;;;13.55;50.02
21109;BME280;10712;52.944;9.098;2023-03-04T02:09:28;102064.94;;;13.38;50.28
21109;BME280;10712;52.944;9.098;2023-03-04T02:11:54;102064.72;;;13.43;50.26
21109;BME280;10712;52.944;9.098;2023-03-04T02:14:21;102058.28;;;13.47;50.31
21109;BME280;10712;52.944;9.098;2023-03-04T02:16:48;102055.50;;;13.49;50.19
21109;BME280;10712;52.944;9.098;2023-03-04T02:19:54;102055.50;;;13.49;50.33
21109;BME280;10712;52.944;9.098;2023-03-04T02:22:21;102057.09;;;13.53;49.96
21109;BME280;10712;52.944;9.098;2023-03-04T02:25:14;102052.81;;;13.49;50.25
21109;BME280;10712;52.944;9.098;2023-03-04T02:27:43;102049.31;;;13.48;50.39
21109;BME280;10712;52.944;9.098;2023-03-04T02:30:18;102041.34;;;13.47;50.56
21109;BME280;10712;52.944;9.098;2023-03-04T02:32:44;102049.16;;;13.51;50.39
21109;BME280;10712;52.944;9.098;2023-03-04T02:35:16;102039.13;;;13.37;51.09
21109;BME280;10712;52.944;9.098;2023-03-04T02:37:44;102043.22;;;13.45;51.06
21109;BME280;10712;52.944;9.098;2023-03-04T02:40:28;102041.34;;;13.47;50.93
21109;BME280;10712;52.944;9.098;2023-03-04T02:42:54;102035.13;;;13.46;50.88
21109;BME280;10712;52.944;9.098;2023-03-04T02:45:42;102031.03;;;13.39;51.04
21109;BME280;10712;52.944;9.098;2023-03-04T02:48:10;102030.28;;;13.35;50.97
21109;BME280;10712;52.944;9.098;2023-03-04T02:50:52;102029.03;;;13.43;50.93
21109;BME280;10712;52.944;9.098;2023-03-04T02:53:19;102021.94;;;13.41;51.05
21109;BME280;10712;52.944;9.098;2023-03-04T02:55:47;102031.41;;;13.31;51.01
21109;BME280;10712;52.944;9.098;2023-03-04T02:58:14;102017.41;;;13.44;50.64
21109;BME280;10712;52.944;9.098;2023-03-04T03:00:41;102018.34;;;13.43;50.59
21109;BME280;10712;52.944;9.098;2023-03-04T03:03:07;102020.06;;;13.44;50.67
21109;BME280;10712;52.944;9.098;2023-03-04T03:05:36;102022.81;;;13.42;50.58
21109;BME280;10712;52.944;9.098;2023-03-04T03:08:03;102020.31;;;13.39;50.56
21109;BME280;10712;52.944;9.098;2023-03-04T03:10:29;102019.19;;;13.43;50.65
21109;BME280;10712;52.944;9.098;2023-03-04T03:12:56;102018.50;;;13.39;50.89
21109;BME280;10712;52.944;9.098;2023-03-04T03:15:22;102021.31;;;13.36;51.09
21109;BME280;10712;52.944;9.098;2023-03-04T03:17:48;102012.09;;;13.42;50.75
21109;BME280;10712;52.944;9.098;2023-03-04T03:20:16;102018.50;;;13.39;51.12
21109;BME280;10712;52.944;9.098;2023-03-04T03:22:42;102015.91;;;13.38;51.42
21109;BME280;10712;52.944;9.098;2023-03-04T03:25:11;102011.25;;;13.41;51.72
21109;BME280;10712;52.944;9.098;2023-03-04T03:27:37;102007.78;;;13.39;51.73
21109;BME280;10712;52.944;9.098;2023-03-04T03:30:04;102007.00;;;13.37;51.99
21109;BME280;10712;52.944;9.098;2023-03-04T03:32:30;102012.59;;;13.33;51.92
21109;BME280;10712;52.944;9.098;2023-03-04T03:34:56;102001.72;;;13.36;51.90
21109;BME280;10712;52.944;9.098;2023-03-04T03:37:22;102006.84;;;13.40;51.86
21109;BME280;10712;52.944;9.098;2023-03-04T03:39:47;102015.19;;;13.34;52.13
21109;BME280;10712;52.944;9.098;2023-03-04T03:42:13;102006.19;;;13.35;52.15
21109;BME280;10712;52.944;9.098;2023-03-04T03:44:39;102002.59;;;13.36;51.97
21109;BME280;10712;52.944;9.098;2023-03-04T03:47:06;102003.38;;;13.38;51.83
21109;BME280;10712;52.944;9.098;2023-03-04T03:49:31;101999.03;;;13.36;52.21
21109;BME280;10712;52.944;9.098;2023-03-04T03:51:57;101998.97;;;13.37;52.06
21109;BME280;10712;52.944;9.098;2023-03-04T03:54:23;101991.88;;;13.36;52.13
21109;BME280;10712;52.944;9.098;2023-03-04T03:56:49;101991.09;;;13.34;51.84
21109;BME280;10712;52.944;9.098;2023-03-04T03:59:15;101993.69;;;13.36;52.16
21109;BME280;10712;52.944;9.098;2023-03-04T04:01:40;101982.28;;;13.32;52.64
21109;BME280;10712;52.944;9.098;2023-03-04T04:04:06;101985.66;;;13.36;52.38
21109;BME280;10712;52.944;9.098;2023-03-04T04:06:32;101979.75;;;13.29;52.38
21109;BME280;10712;52.944;9.098;2023-03-04T04:08:58;101970.84;;;13.29;52.20
21109;BME280;10712;52.944;9.098;2023-03-04T04:11:24;101970.63;;;13.33;52.43
21109;BME280;10712;52.944;9.098;2023-03-04T04:13:49;101967.16;;;13.31;52.44
21109;BME280;10712;52.944;9.098;2023-03-04T04:16:15;101967.16;;;13.31;52.34
21109;BME280;10712;52.944;9.098;2023-03-04T04:18:41;101972.75;;;13.27;52.29
21109;BME280;10712;52.944;9.098;2023-03-04T04:21:08;101969.22;;;13.26;52.30
21109;BME280;10712;52.944;9.098;2023-03-04T04:23:34;101964.44;;;13.14;52.79
21109;BME280;10712;52.944;9.098;2023-03-04T04:26:00;101967.47;;;13.25;52.44
21109;BME280;10712;52.944;9.098;2023-03-04T04:28:26;101958.94;;;13.17;53.05
21109;BME280;10712;52.944;9.098;2023-03-04T04:30:51;101964.72;;;13.27;52.70
21109;BME280;10712;52.944;9.098;2023-03-04T04:33:17;101965.81;;;13.23;52.86
21109;BME280;10712;52.944;9.098;2023-03-04T04:35:43;101968.34;;;13.26;52.82
21109;BME280;10712;52.944;9.098;2023-03-04T04:38:09;101958.09;;;13.17;53.21
21109;BME280;10712;52.944;9.098;2023-03-04T04:40:36;101954.41;;;13.19;53.17
21109;BME280;10712;52.944;9.098;2023-03-04T04:43:02;101954.75;;;13.12;53.33
21109;BME280;10712;52.944;9.098;2023-03-04T04:45:28;101951.06;;;13.14;53.48
21109;BME280;10712;52.944;9.098;2023-03-04T04:47:55;101946.78;;;13.10;53.81
21109;BME280;10712;52.944;9.098;2023-03-04T04:50:25;101953.00;;;13.11;53.71
21109;BME280;10712;52.944;9.098;2023-03-04T04:52:51;101954.72;;;13.13;53.98
21109;BME280;10712;52.944;9.098;2023-03-04T04:55:17;101956.06;;;13.03;54.05
21109;BME280;10712;52.944;9.098;2023-03-04T04:57:43;101957.94;;;13.01;54.22
21109;BME280;10712;52.944;9.098;2023-03-04T05:00:10;101959.38;;;13.08;53.98
21109;BME280;10712;52.944;9.098;2023-03-04T05:02:36;101955.19;;;13.02;54.28
21109;BME280;10712;52.944;9.098;2023-03-04T05:05:06;101961.41;;;13.03;54.19
21109;BME280;10712;52.944;9.098;2023-03-04T05:07:33;101962.97;;;13.07;54.40
21109;BME280;10712;52.944;9.098;2023-03-04T05:09:59;101955.13;;;13.04;54.62
21109;BME280;10712;52.944;9.098;2023-03-04T05:12:25;101950.84;;;13.00;54.93
21109;BME280;10712;52.944;9.098;2023-03-04T05:14:50;101954.47;;;12.99;54.95
21109;BME280;10712;52.944;9.098;2023-03-04T05:17:16;101955.34;;;12.99;54.92
21109;BME280;10712;52.944;9.098;2023-03-04T05:19:42;101947.41;;;12.98;55.06
21109;BME280;10712;52.944;9.098;2023-03-04T05:22:08;101954.47;;;12.99;55.36
21109;BME280;10712;52.944;9.098;2023-03-04T05:24:34;101951.16;;;12.94;55.24
21109;BME280;10712;52.944;9.098;2023-03-04T05:27:01;101953.69;;;12.97;55.38
21109;BME280;10712;52.944;9.098;2023-03-04T05:29:27;101951.31;;;12.91;55.44
21109;BME280;10712;52.944;9.098;2023-03-04T05:31:53;101947.78;;;12.90;55.60
21109;BME280;10712;52.944;9.098;2023-03-04T05:34:19;101949.44;;;12.93;55.35
21109;BME280;10712;52.944;9.098;2023-03-04T05:36:44;101945.97;;;12.91;55.63
21109;BME280;10712;52.944;9.098;2023-03-04T05:39:10;101949.13;;;12.99;55.46
21109;BME280;10712;52.944;9.098;2023-03-04T05:41:36;101952.13;;;12.93;55.72
21109;BME280;10712;52.944;9.098;2023-03-04T05:44:02;101948.78;;;12.88;55.82
21109;BME280;10712;52.944;9.098;2023-03-04T05:46:28;101953.44;;;13.01;55.80
21109;BME280;10712;52.944;9.098;2023-03-04T05:48:54;101951.16;;;12.94;55.79
21109;BME280;10712;52.944;9.098;2023-03-04T05:51:21;101951.50;;;12.86;56.14
21109;BME280;10712;52.944;9.098;2023-03-04T05:53:47;101950.22;;;12.95;56.02
21109;BME280;10712;52.944;9.098;2023-03-04T05:56:17;101952.25;;;12.90;56.10
21109;BME280;10712;52.944;9.098;2023-03-04T05:58:44;101954.94;;;12.90;55.92
21109;BME280;10712;52.944;9.098;2023-03-04T06:01:12;101953.63;;;12.80;56.50
21109;BME280;10712;52.944;9.098;2023-03-04T06:03:38;101943.06;;;12.95;56.21
21109;BME280;10712;52.944;9.098;2023-03-04T06:06:05;101944.94;;;12.93;56.36
21109;BME280;10712;52.944;9.098;2023-03-04T06:08:31;101936.34;;;12.87;56.60
21109;BME280;10712;52.944;9.098;2023-03-04T06:10:57;101942.00;;;12.81;57.05
21109;BME280;10712;52.944;9.098;2023-03-04T06:13:24;101946.25;;;12.85;56.83
21109;BME280;10712;52.944;9.098;2023-03-04T06:15:58;101932.59;;;12.91;56.83
21109;BME280;10712;52.944;9.098;2023-03-04T06:18:26;101934.31;;;12.92;57.00
21109;BME280;10712;52.944;9.098;2023-03-04T06:21:01;101950.56;;;12.87;57.19
21109;BME280;10712;52.944;9.098;2023-03-04T06:23:29;101947.69;;;12.92;57.09
21109;BME280;10712;52.944;9.098;2023-03-04T06:25:58;101944.94;;;12.93;56.96
21109;BME280;10712;52.944;9.098;2023-03-04T06:28:24;101943.13;;;12.94;56.88
21109;BME280;10712;52.944;9.098;2023-03-04T06:30:52;101951.63;;;12.85;57.34
21109;BME280;10712;52.944;9.098;2023-03-04T06:33:18;101949.81;;;12.85;57.24
21109;BME280;10712;52.944;9.098;2023-03-04T06:35:44;101946.91;;;12.90;57.06
21109;BME280;10712;52.944;9.098;2023-03-04T06:38:10;101951.16;;;12.94;57.10
21109;BME280;10712;52.944;9.098;2023-03-04T06:40:36;101954.00;;;12.91;57.26
21109;BME280;10712;52.944;9.098;2023-03-04T06:43:02;101946.59;;;12.96;57.28
21109;BME280;10712;52.944;9.098;2023-03-04T06:45:27;101954.56;;;12.97;57.33
21109;BME280;10712;52.944;9.098;2023-03-04T06:47:53;101956.19;;;13.00;57.42
21109;BME280;10712;52.944;9.098;2023-03-04T06:50:19;101960.13;;;12.93;57.78
21109;BME280;10712;52.944;9.098;2023-03-04T06:52:45;101953.50;;;13.00;57.58
21109;BME280;10712;52.944;9.098;2023-03-04T06:55:12;101962.50;;;12.99;57.78
21109;BME280;10712;52.944;9.098;2023-03-04T06:57:38;101956.13;;;13.01;57.72
21109;BME280;10712;52.944;9.098;2023-03-04T07:00:05;101957.78;;;13.04;57.65
21109;BME280;10712;52.944;9.098;2023-03-04T07:02:31;101964.72;;;13.08;57.52
21109;BME280;10712;52.944;9.098;2023-03-04T07:04:57;101968.44;;;13.06;57.78
21109;BME280;10712;52.944;9.098;2023-03-04T07:07:24;101966.44;;;13.09;57.87
21109;BME280;10712;52.944;9.098;2023-03-04T07:09:51;101971.97;;;13.06;57.96
21109;BME280;10712;52.944;9.098;2023-03-04T07:12:17;101971.81;;;13.09;57.90
21109;BME280;10712;52.944;9.098;2023-03-04T07:14:42;101977.16;;;13.09;58.34
21109;BME280;10712;52.944;9.098;2023-03-04T07:17:08;101968.09;;;13.13;58.15
21109;BME280;10712;52.944;9.098;2023-03-04T07:19:34;101969.94;;;13.11;58.27
21109;BME280;10712;52.944;9.098;2023-03-04T07:22:00;101962.56;;;13.16;58.30
21109;BME280;10712;52.944;9.098;2023-03-04T07:24:27;101969.34;;;13.23;58.34
21109;BME280;10712;52.944;9.098;2023-03-04T07:26:53;101968.28;;;13.27;58.12
21109;BME280;10712;52.944;9.098;2023-03-04T07:29:18;101963.69;;;13.29;58.27
21109;BME280;10712;52.944;9.098;2023-03-04T07:31:44;101970.44;;;13.19;58.81
21109;BME280;10712;52.944;9.098;2023-03-04T07:34:13;101973.81;;;13.23;58.53
21109;BME280;10712;52.944;9.098;2023-03-04T07:36:40;101972.66;;;13.28;58.29
21109;BME280;10712;52.944;9.098;2023-03-04T07:39:07;101971.94;;;13.25;58.58
21109;BME280;10712;52.944;9.098;2023-03-04T07:41:33;101979.91;;;13.26;58.62
21109;BME280;10712;52.944;9.098;2023-03-04T07:44:05;101971.56;;;13.32;58.48
21109;BME280;10712;52.944;9.098;2023-03-04T07:46:31;101977.09;;;13.47;58.29
21109;BME280;10712;52.944;9.098;2023-03-04T07:48:57;101976.63;;;13.38;58.70
21109;BME280;10712;52.944;9.098;2023-03-04T07:51:26;101983.41;;;13.46;58.46
21109;BME280;10712;52.944;9.098;2023-03-04T07:53:57;101978.66;;;13.51;58.42
21109;BME280;10712;52.944;9.098;2023-03-04T07:56:27;101978.66;;;13.51;58.62
21109;BME280;10712;52.944;9.098;2023-03-04T07:58:54;101976.59;;;13.56;58.49
21109;BME280;10712;52.944;9.098;2023-03-04T08:01:34;101978.28;;;13.41;58.62
21109;BME280;10712;52.944;9.098;2023-03-04T08:04:02;101968.41;;;13.41;58.01
21109;BME280;10712;52.944;9.098;2023-03-04T08:06:29;101971.56;;;13.50;57.46
21109;BME280;10712;52.944;9.098;2023-03-04T08:09:02;101971.44;;;13.53;57.34
21109;BME280;10712;52.944;9.098;2023-03-04T08:11:29;101975.78;;;13.55;57.12
21109;BME280;10712;52.944;9.098;2023-03-04T08:13:56;101964.88;;;13.58;57.01
21109;BME280;10712;52.944;9.098;2023-03-04T08:16:23;101971.44;;;13.53;56.86
21109;BME280;10712;52.944;9.098;2023-03-04T08:18:55;101967.00;;;13.52;56.40
21109;BME280;10712;52.944;9.098;2023-03-04T08:21:23;101974.59;;;13.61;56.32
21109;BME280;10712;52.944;9.098;2023-03-04T08:23:51;101975.34;;;13.63;56.36
21109;BME280;10712;52.944;9.098;2023-03-04T08:26:28;101963.94;;;13.59;56.34
21109;BME280;10712;52.944;9.098;2023-03-04T08:28:55;101960.00;;;13.49;56.39
21109;BME280;10712;52.944;9.098;2023-03-04T08:31:21;101966.38;;;13.47;56.03
21109;BME280;10712;52.944;9.098;2023-03-04T08:33:48;101970.78;;;13.30;56.25
21109;BME280;10712;52.944;9.098;2023-03-04T08:36:15;101959.13;;;13.49;55.48
21109;BME280;10712;52.944;9.098;2023-03-04T08:38:41;101963.00;;;13.60;55.08
21109;BME280;10712;52.944;9.098;2023-03-04T08:41:08;101969.38;;;13.58;54.67
21109;BME280;10712;52.944;9.098;2023-03-04T08:43:34;101962.13;;;13.60;54.70
21109;BME280;10712;52.944;9.098;2023-03-04T08:46:00;101955.50;;;13.32;54.92
21109;BME280;10712;52.944;9.098;2023-03-04T08:48:26;101967.94;;;13.51;54.34
21109;BME280;10712;52.944;9.098;2023-03-04T08:50:52;101965.91;;;13.56;54.35
21109;BME280;10712;52.944;9.098;2023-03-04T08:53:19;101975.19;;;13.49;54.25
21109;BME280;10712;52.944;9.098;2023-03-04T08:55:46;101978.22;;;13.60;53.96
21109;BME280;10712;52.944;9.098;2023-03-04T08:58:13;101978.22;;;13.60;53.75
21109;BME280;10712;52.944;9.098;2023-03-04T09:00:43;101988.91;;;13.60;54.22
21109;BME280;10712;52.944;9.098;2023-03-04T09:03:11;101989.94;;;13.57;54.37
21109;BME280;10712;52.944;9.098;2023-03-04T09:05:37;101990.50;;;12.92;55.36
21109;BME280;10712;52.944;9.098;2023-03-04T09:08:03;101988.56;;;13.31;55.46
21109;BME280;10712;52.944;9.098;2023-03-04T09:10:29;101995.34;;;13.38;55.29
21109;BME280;10712;52.944;9.098;2023-03-04T09:12:55;101999.41;;;13.28;55.38
21109;BME280;10712;52.944;9.098;2023-03-04T09:15:22;101989.31;;;13.16;55.65
21109;BME280;10712;52.944;9.098;2023-03-04T09:17:48;101989.81;;;13.41;55.77
21109;BME280;10712;52.944;9.098;2023-03-04T09:20:14;101986.06;;;13.46;54.39
21109;BME280;10712;52.944;9.098;2023-03-04T09:22:41;101990.03;;;13.01;54.61
21109;BME280;10712;52.944;9.098;2023-03-04T09:25:10;101990.63;;;13.26;54.45
21109;BME280;10712;52.944;9.098;2023-03-04T09:27:39;101997.53;;;13.13;53.80
21109;BME280;10712;52.944;9.098;2023-03-04T09:30:06;102011.81;;;13.12;54.08
21109;BME280;10712;52.944;9.098;2023-03-04T09:32:32;102007.53;;;13.08;54.75
21109;BME280;10712;52.944;9.098;2023-03-04T09:34:58;102011.72;;;12.95;55.28
21109;BME280;10712;52.944;9.098;2023-03-04T09:37:23;102022.94;;;13.03;55.47
21109;BME280;10712;52.944;9.098;2023-03-04T09:39:49;102018.38;;;13.05;55.11
21109;BME280;10712;52.944;9.098;2023-03-04T09:42:34;102018.78;;;12.79;55.45
21109;BME280;10712;52.944;9.098;2023-03-04T09:45:05;102022.44;;;12.95;54.37
21109;BME280;10712;52.944;9.098;2023-03-04T09:47:36;102024.03;;;12.99;53.94
21109;BME280;10712;52.944;9.098;2023-03-04T09:50:08;102019.72;;;12.78;54.42
21109;BME280;10712;52.944;9.098;2023-03-04T09:55:40;102020.69;;;13.31;54.60
21109;BME280;10712;52.944;9.098;2023-03-04T09:58:48;102016.16;;;13.51;54.76
21109;BME280;10712;52.944;9.098;2023-03-04T10:06:47;102016.81;;;13.73;54.02
21109;BME280;10712;52.944;9.098;2023-03-04T10:09:49;102021.34;;;13.54;52.81
21109;BME280;10712;52.944;9.098;2023-03-04T10:12:21;102023.31;;;13.14;53.92
21109;BME280;10712;52.944;9.098;2023-03-04T10:14:56;102023.88;;;13.02;53.63
21109;BME280;10712;52.944;9.098;2023-03-04T10:17:39;102015.56;;;12.89;52.71
21109;BME280;10712;52.944;9.098;2023-03-04T10:23:09;102013.16;;;13.21;52.01
21109;BME280;10712;52.944;9.098;2023-03-04T10:25:40;102015.34;;;13.31;52.90
21109;BME280;10712;52.944;9.098;2023-03-04T10:28:16;102006.84;;;13.58;52.72
21109;BME280;10712;52.944;9.098;2023-03-04T10:33:38;102009.16;;;13.83;50.35
21109;BME280;10712;52.944;9.098;2023-03-04T10:36:11;102002.78;;;13.68;50.57
21109;BME280;10712;52.944;9.098;2023-03-04T10:38:44;102002.28;;;13.77;49.23
21109;BME280;10712;52.944;9.098;2023-03-04T10:41:19;102007.19;;;13.69;48.62
21109;BME280;10712;52.944;9.098;2023-03-04T10:44:00;102011.31;;;13.76;48.86
21109;BME280;10712;52.944;9.098;2023-03-04T10:46:26;101997.25;;;13.71;49.16
21109;BME280;10712;52.944;9.098;2023-03-04T10:48:53;102003.38;;;14.07;49.58
21109;BME280;10712;52.944;9.098;2023-03-04T10:51:26;101998.50;;;14.15;49.73
21109;BME280;10712;52.944;9.098;2023-03-04T10:54:15;101995.50;;;14.04;48.98
21109;BME280;10712;52.944;9.098;2023-03-04T10:57:04;101998.31;;;14.18;48.20
21109;BME280;10712;52.944;9.098;2023-03-04T10:59:48;101998.97;;;14.06;48.55
21109;BME280;10712;52.944;9.098;2023-03-04T11:02:33;102008.44;;;13.96;48.98
21109;BME280;10712;52.944;9.098;2023-03-04T11:07:48;102004.34;;;13.55;51.32
21109;BME280;10712;52.944;9.098;2023-03-04T11:15:28;101993.97;;;13.66;52.05
21109;BME280;10712;52.944;9.098;2023-03-04T11:18:03;101989.88;;;13.76;51.98
21109;BME280;10712;52.944;9.098;2023-03-04T11:20:42;102001.59;;;13.73;51.96
21109;BME280;10712;52.944;9.098;2023-03-04T11:23:34;101983.78;;;13.72;50.92
21109;BME280;10712;52.944;9.098;2023-03-04T11:26:11;101981.81;;;13.59;51.46
21109;BME280;10712;52.944;9.098;2023-03-04T11:28:54;101983.53;;;13.94;50.90
21109;BME280;10712;52.944;9.098;2023-03-04T11:31:45;101988.09;;;14.09;51.34
21109;BME280;10712;52.944;9.098;2023-03-04T11:37:32;101987.88;;;13.62;49.81
21109;BME280;10712;52.944;9.098;2023-03-04T11:40:23;101985.84;;;13.67;49.53
21109;BME280;10712;52.944;9.098;2023-03-04T11:43:00;101979.75;;;13.64;49.51
21109;BME280;10712;52.944;9.098;2023-03-04T11:50:47;101979.69;;;13.83;49.05
21109;BME280;10712;52.944;9.098;2023-03-04T11:53:26;101971.81;;;13.79;48.94
21109;BME280;10712;52.944;9.098;2023-03-04T11:59:29;101956.22;;;13.88;48.39
21109;BME280;10712;52.944;9.098;2023-03-04T12:02:22;101951.72;;;13.88;47.89
21109;BME280;10712;52.944;9.098;2023-03-04T12:25:20;101948.97;;;14.23;47.45
21109;BME280;10712;52.944;9.098;2023-03-04T12:28:20;101933.66;;;14.25;47.51
21109;BME280;10712;52.944;9.098;2023-03-04T12:34:30;101931.53;;;14.31;46.76
21109;BME280;10712;52.944;9.098;2023-03-04T12:45:34;101953.78;;;13.66;50.13
21109;BME280;10712;52.944;9.098;2023-03-04T12:48:36;101942.53;;;13.06;51.11
21109;BME280;10712;52.944;9.098;2023-03-04T12:51:16;101943.38;;;13.43;49.96
21109;BME280;10712;52.944;9.098;2023-03-04T12:56:44;101938.97;;;13.59;48.09
21109;BME280;10712;52.944;9.098;2023-03-04T12:59:17;101928.41;;;13.56;47.86
21109;BME280;10712;52.944;9.098;2023-03-04T13:04:30;101921.41;;;13.70;47.98
21109;BME280;10712;52.944;9.098;2023-03-04T13:07:16;101917.66;;;13.90;47.69
21109;BME280;10712;52.944;9.098;2023-03-04T13:10:00;101919.41;;;13.91;46.94
21109;BME280;10712;52.944;9.098;2023-03-04T13:12:56;101908.34;;;13.97;47.01
21109;BME280;10712;52.944;9.098;2023-03-04T13:21:21;101913.66;;;14.14;46.88
21109;BME280;10712;52.944;9.098;2023-03-04T13:23:48;101917.78;;;14.37;46.45
21109;BME280;10712;52.944;9.098;2023-03-04T13:26:28;101913.00;;;14.27;46.89
21109;BME280;10712;52.944;9.098;2023-03-04T13:31:58;101915.94;;;14.22;46.21
21109;BME280;10712;52.944;9.098;2023-03-04T13:34:49;101927.41;;;14.08;46.67
21109;BME280;10712;52.944;9.098;2023-03-04T13:37:35;101921.59;;;13.83;45.95
21109;BME280;10712;52.944;9.098;2023-03-04T13:42:49;101921.63;;;13.49;46.67
21109;BME280;10712;52.944;9.098;2023-03-04T13:45:36;101929.22;;;13.40;47.60
21109;BME280;10712;52.944;9.098;2023-03-04T13:48:33;101913.78;;;13.28;48.02
21109;BME280;10712;52.944;9.098;2023-03-04T13:51:02;101918.34;;;13.44;47.97
21109;BME280;10712;52.944;9.098;2023-03-04T13:53:52;101911.50;;;13.38;47.50
21109;BME280;10712;52.944;9.098;2023-03-04T13:56:42;101913.72;;;13.47;47.18
21109;BME280;10712;52.944;9.098;2023-03-04T13:59:26;101913.41;;;13.53;46.91
21109;BME280;10712;52.944;9.098;2023-03-04T14:02:09;101916.00;;;13.55;46.84
21109;BME280;10712;52.944;9.098;2023-03-04T14:04:43;101905.09;;;13.75;47.00
21109;BME280;10712;52.944;9.098;2023-03-04T14:12:55;101916.38;;;13.64;45.14
21109;BME280;10712;52.944;9.098;2023-03-04T14:15:28;101919.25;;;13.77;44.94
21109;BME280;10712;52.944;9.098;2023-03-04T14:17:58;101907.81;;;13.40;44.25
21109;BME280;10712;52.944;9.098;2023-03-04T14:20:30;101913.94;;;13.60;44.34
21109;BME280;10712;52.944;9.098;2023-03-04T14:23:00;101918.66;;;13.72;44.90
21109;BME280;10712;52.944;9.098;2023-03-04T14:25:32;101922.44;;;13.16;44.45
21109;BME280;10712;52.944;9.098;2023-03-04T14:28:19;101929.59;;;12.97;45.35
21109;BME280;10712;52.944;9.098;2023-03-04T14:30:54;101924.78;;;13.22;46.02
21109;BME280;10712;52.944;9.098;2023-03-04T14:33:29;101913.78;;;13.28;46.18
21109;BME280;10712;52.944;9.098;2023-03-04T14:36:01;101912.69;;;13.32;46.60